createdAt,value
2018-01-07T00:01:52.852Z,5.90
2018-01-07T00:04:23.519Z,5.90
2018-01-07T00:06:54.612Z,5.90
2018-01-07T00:09:24.842Z,5.80
2018-01-07T00:11:55.525Z,5.80
2018-01-07T00:14:25.793Z,5.90
2018-01-07T00:16:57.295Z,5.80
2018-01-07T00:19:28.259Z,5.80
2018-01-07T00:21:59.614Z,5.90
2018-01-07T00:24:30.205Z,5.90
2018-01-07T00:27:01.428Z,5.80
2018-01-07T00:29:31.949Z,5.80
2018-01-07T00:32:02.579Z,5.70
2018-01-07T00:34:35.195Z,5.70
2018-01-07T00:37:06.267Z,5.60
2018-01-07T00:39:37.716Z,5.40
2018-01-07T00:42:09.346Z,5.30
2018-01-07T00:44:39.933Z,5.30
2018-01-07T00:47:11.047Z,5.30
2018-01-07T00:49:41.586Z,5.20
2018-01-07T00:52:12.588Z,5.10
2018-01-07T00:54:43.490Z,5.10
2018-01-07T00:57:15.572Z,5.20
2018-01-07T00:59:46.691Z,5.30
2018-01-07T01:02:16.953Z,5.40
2018-01-07T01:04:47.528Z,5.50
2018-01-07T01:07:18.622Z,5.40
2018-01-07T01:09:49.001Z,5.40
2018-01-07T01:12:19.220Z,5.40
2018-01-07T01:14:49.842Z,5.40
2018-01-07T01:17:21.449Z,5.30
2018-01-07T01:19:51.954Z,5.30
2018-01-07T01:22:23.392Z,5.40
2018-01-07T01:24:54.293Z,5.30
2018-01-07T01:27:25.623Z,5.60
2018-01-07T01:29:56.515Z,5.50
2018-01-07T01:32:27.081Z,5.60
2018-01-07T01:34:58.025Z,5.50
2018-01-07T01:37:28.290Z,5.40
2018-01-07T01:39:59.030Z,5.40
2018-01-07T01:42:29.771Z,5.40
2018-01-07T01:45:00.350Z,5.40
2018-01-07T01:47:30.902Z,5.40
2018-01-07T01:50:01.524Z,5.30
2018-01-07T01:52:32.064Z,5.30
2018-01-07T01:55:02.360Z,5.40
2018-01-07T01:57:32.640Z,5.50
2018-01-07T02:00:03.265Z,5.50
2018-01-07T02:02:33.885Z,5.60
2018-01-07T02:05:05.861Z,5.60
2018-01-07T02:07:36.126Z,5.60
2018-01-07T02:10:06.714Z,5.50
2018-01-07T02:12:37.505Z,5.30
2018-01-07T02:15:08.361Z,5.40
2018-01-07T02:17:39.706Z,5.50
2018-01-07T02:20:09.923Z,5.50
2018-01-07T02:22:40.080Z,5.60
2018-01-07T02:25:10.605Z,5.60
2018-01-07T02:27:40.821Z,5.50
2018-01-07T02:30:11.377Z,5.60
2018-01-07T02:32:41.556Z,5.60
2018-01-07T02:35:12.489Z,5.70
2018-01-07T02:37:43.140Z,5.60
2018-01-07T02:40:14.473Z,5.60
2018-01-07T02:42:45.936Z,5.50
2018-01-07T02:45:16.604Z,5.50
2018-01-07T02:47:47.164Z,5.50
2018-01-07T02:50:17.387Z,5.40
2018-01-07T02:52:48.010Z,5.50
2018-01-07T02:55:19.065Z,5.60
2018-01-07T02:57:49.783Z,5.70
2018-01-07T03:00:21.004Z,5.70
2018-01-07T03:02:51.888Z,5.70
2018-01-07T03:05:22.185Z,5.60
2018-01-07T03:07:52.923Z,5.50
2018-01-07T03:10:23.546Z,5.50
2018-01-07T03:12:54.215Z,5.40
2018-01-07T03:15:25.142Z,5.40
2018-01-07T03:17:55.411Z,5.40
2018-01-07T03:20:26.379Z,5.40
2018-01-07T03:24:15.665Z,5.40
2018-01-07T03:26:46.597Z,5.40
2018-01-07T03:29:17.067Z,5.40
2018-01-07T03:31:48.405Z,5.50
2018-01-07T03:34:19.340Z,5.50
2018-01-07T03:36:49.894Z,5.50
2018-01-07T03:39:20.505Z,5.60
2018-01-07T03:41:51.903Z,5.50
2018-01-07T03:44:22.739Z,5.40
2018-01-07T03:46:53.314Z,5.30
2018-01-07T03:49:24.615Z,5.20
2018-01-07T03:51:55.201Z,5.00
2018-01-07T03:54:26.071Z,5.00
2018-01-07T03:56:57.799Z,4.90
2018-01-07T03:59:28.924Z,4.90
2018-01-07T04:01:59.911Z,4.90
2018-01-07T04:04:32.028Z,4.50
2018-01-07T04:07:02.479Z,4.50
2018-01-07T04:09:33.144Z,4.40
2018-01-07T04:12:04.482Z,4.60
2018-01-07T04:14:35.515Z,4.70
2018-01-07T04:17:05.884Z,4.70
2018-01-07T04:19:37.455Z,4.80
2018-01-07T04:22:08.607Z,4.70
2018-01-07T04:24:39.496Z,4.60
2018-01-07T04:27:10.078Z,4.80
2018-01-07T04:29:40.790Z,4.90
2018-01-07T04:32:11.922Z,5.00
2018-01-07T04:34:42.952Z,4.90
2018-01-07T04:37:13.639Z,4.80
2018-01-07T04:39:44.179Z,4.70
2018-01-07T04:42:15.564Z,4.70
2018-01-07T04:44:46.267Z,4.70
2018-01-07T04:47:17.623Z,4.90
2018-01-07T04:49:49.107Z,5.10
2018-01-07T04:52:19.803Z,5.10
2018-01-07T04:54:50.853Z,5.10
2018-01-07T04:57:22.095Z,5.20
2018-01-07T04:59:53.011Z,5.30
2018-01-07T05:02:24.611Z,5.50
2018-01-07T05:04:55.663Z,5.50
2018-01-07T05:07:48.621Z,5.50
2018-01-07T05:10:19.741Z,5.50
2018-01-07T05:12:51.440Z,5.40
2018-01-07T05:15:21.990Z,5.40
2018-01-07T05:17:52.554Z,5.50
2018-01-07T05:20:23.043Z,5.50
2018-01-07T05:22:53.660Z,5.50
2018-01-07T05:25:24.934Z,5.40
2018-01-07T05:27:55.810Z,5.40
2018-01-07T05:30:26.884Z,5.30
2018-01-07T05:32:57.372Z,5.40
2018-01-07T05:35:29.717Z,5.20
2018-01-07T05:38:00.639Z,5.20
2018-01-07T05:40:31.296Z,5.30
2018-01-07T05:43:01.861Z,5.20
2018-01-07T05:45:32.392Z,5.30
2018-01-07T05:48:03.036Z,5.20
2018-01-07T05:50:34.019Z,5.00
2018-01-07T05:53:04.378Z,5.00
2018-01-07T05:55:35.003Z,4.90
2018-01-07T05:58:06.624Z,4.80
2018-01-07T06:00:38.975Z,4.70
2018-01-07T06:03:10.605Z,4.80
2018-01-07T06:05:41.492Z,5.00
2018-01-07T06:08:12.164Z,5.00
2018-01-07T06:10:43.579Z,4.90
2018-01-07T06:13:14.870Z,4.80
2018-01-07T06:15:45.857Z,4.40
2018-01-07T06:18:16.452Z,4.40
2018-01-07T06:20:46.779Z,4.40
2018-01-07T06:23:18.286Z,4.50
2018-01-07T06:25:49.840Z,4.60
2018-01-07T06:28:21.286Z,4.80
2018-01-07T06:30:55.072Z,4.80
2018-01-07T06:33:26.387Z,4.90
2018-01-07T06:35:57.514Z,4.90
2018-01-07T06:38:27.777Z,5.00
2018-01-07T06:40:59.545Z,5.10
2018-01-07T06:43:30.423Z,5.10
2018-01-07T06:46:01.010Z,5.00
2018-01-07T06:48:31.275Z,4.90
2018-01-07T06:51:02.419Z,4.90
2018-01-07T06:53:32.835Z,4.90
2018-01-07T06:56:03.256Z,4.90
2018-01-07T06:58:35.329Z,4.70
2018-01-07T07:01:05.739Z,4.70
2018-01-07T07:03:37.081Z,4.60
2018-01-07T07:06:08.788Z,4.60
2018-01-07T07:08:40.007Z,4.50
2018-01-07T07:11:11.943Z,4.40
2018-01-07T07:13:42.663Z,4.00
2018-01-07T07:16:13.439Z,3.90
2018-01-07T07:18:44.178Z,3.90
2018-01-07T07:21:17.946Z,3.70
2018-01-07T07:23:48.215Z,3.60
2018-01-07T07:26:19.696Z,3.30
2018-01-07T07:28:58.177Z,3.20
2018-01-07T07:31:37.325Z,3.20
2018-01-07T07:34:08.099Z,3.30
2018-01-07T07:36:39.356Z,3.20
2018-01-07T07:39:09.663Z,3.30
2018-01-07T07:41:39.926Z,3.50
2018-01-07T07:44:12.555Z,3.10
2018-01-07T07:46:43.214Z,3.10
2018-01-07T07:49:14.438Z,2.70
2018-01-07T07:51:45.185Z,2.60
2018-01-07T07:54:16.478Z,2.10
2018-01-07T07:56:47.785Z,2.10
2018-01-07T07:59:19.839Z,2.20
2018-01-07T08:01:50.642Z,2.50
2018-01-07T08:04:22.030Z,2.60
2018-01-07T08:06:53.321Z,2.80
2018-01-07T08:09:24.626Z,2.90
2018-01-07T08:11:55.119Z,3.20
2018-01-07T08:14:25.969Z,3.40
2018-01-07T08:16:56.702Z,3.30
2018-01-07T08:19:27.154Z,3.30
2018-01-07T08:21:58.416Z,3.10
2018-01-07T08:24:29.407Z,2.80
2018-01-07T08:27:00.398Z,2.30
2018-01-07T08:29:31.783Z,2.40
2018-01-07T08:32:03.775Z,2.70
2018-01-07T08:34:36.004Z,2.90
2018-01-07T08:37:12.353Z,2.90
2018-01-07T08:39:51.094Z,2.90
2018-01-07T08:42:29.092Z,3.00
2018-01-07T08:45:03.060Z,2.90
2018-01-07T08:47:36.143Z,2.90
2018-01-07T08:50:07.861Z,3.10
2018-01-07T08:52:46.041Z,2.90
2018-01-07T08:55:24.847Z,2.60
2018-01-07T08:57:56.340Z,2.50
2018-01-07T09:00:36.311Z,2.60
2018-01-07T09:03:15.778Z,2.50
2018-01-07T09:06:16.505Z,3.00
2018-01-07T09:08:49.442Z,3.40
2018-01-07T09:11:30.392Z,3.30
2018-01-07T09:14:08.850Z,3.30
2018-01-07T09:16:45.519Z,3.80
2018-01-07T09:19:24.460Z,3.80
2018-01-07T09:22:05.880Z,4.10
2018-01-07T09:24:43.241Z,4.20
2018-01-07T09:27:16.617Z,2.80
2018-01-07T09:29:50.229Z,2.80
2018-01-07T09:32:24.263Z,2.50
2018-01-07T09:34:57.583Z,2.60
2018-01-07T09:37:31.811Z,3.20
2018-01-07T09:40:04.038Z,3.50
2018-01-07T09:42:54.786Z,3.50
2018-01-07T09:45:33.973Z,3.10
2018-01-07T09:48:20.066Z,3.40
2018-01-07T09:50:55.792Z,3.30
2018-01-07T09:53:35.829Z,3.70
2018-01-07T09:56:22.379Z,4.10
2018-01-07T09:58:58.704Z,4.40
2018-01-07T10:01:33.294Z,4.80
2018-01-07T10:04:04.345Z,4.80
2018-01-07T10:06:39.280Z,4.10
2018-01-07T10:09:13.737Z,4.20
2018-01-07T10:11:47.937Z,3.90
2018-01-07T10:14:22.982Z,3.80
2018-01-07T10:17:12.177Z,3.80
2018-01-07T10:19:57.982Z,3.80
2018-01-07T10:22:39.486Z,3.80
2018-01-07T10:25:24.212Z,3.30
2018-01-07T10:28:08.711Z,3.00
2018-01-07T10:30:41.839Z,3.10
2018-01-07T10:33:26.610Z,3.10
2018-01-07T10:36:18.336Z,2.60
2018-01-07T10:38:58.722Z,2.60
2018-01-07T10:41:37.616Z,3.00
2018-01-07T10:44:11.389Z,3.00
2018-01-07T10:46:54.337Z,3.30
2018-01-07T10:49:32.647Z,3.50
2018-01-07T10:55:44.498Z,3.50
2018-01-07T10:58:15.358Z,3.50
2018-01-07T11:00:50.492Z,3.60
2018-01-07T11:03:23.666Z,3.60
2018-01-07T11:06:05.319Z,3.80
2018-01-07T11:08:36.782Z,3.70
2018-01-07T11:11:08.760Z,3.60
2018-01-07T11:13:41.422Z,3.80
2018-01-07T11:16:12.451Z,3.70
2018-01-07T11:18:43.776Z,4.50
2018-01-07T11:21:17.554Z,4.40
2018-01-07T11:23:49.972Z,4.70
2018-01-07T11:26:21.346Z,4.80
2018-01-07T11:28:56.370Z,4.40
2018-01-07T11:31:27.907Z,4.40
2018-01-07T11:33:58.887Z,4.60
2018-01-07T11:36:30.803Z,5.00
2018-01-07T11:39:01.483Z,5.40
2018-01-07T11:45:08.741Z,5.50
2018-01-07T11:47:41.162Z,6.00
2018-01-07T11:50:12.623Z,6.00
2018-01-07T11:52:44.112Z,6.10
2018-01-07T11:55:16.038Z,6.00
2018-01-07T11:57:47.652Z,6.10
2018-01-07T12:00:20.716Z,6.10
2018-01-07T12:02:51.489Z,6.10
2018-01-07T12:05:21.940Z,5.90
2018-01-07T12:07:54.975Z,5.80
2018-01-07T12:10:26.625Z,5.60
2018-01-07T12:12:57.670Z,5.40
2018-01-07T12:15:28.692Z,4.80
2018-01-07T12:17:59.359Z,4.90
2018-01-07T12:20:30.735Z,4.80
2018-01-07T12:23:02.600Z,4.20
2018-01-07T12:25:35.452Z,4.30
2018-01-07T12:28:09.335Z,4.30
2018-01-07T12:30:40.938Z,4.50
2018-01-07T12:33:11.900Z,4.50
2018-01-07T12:35:46.846Z,4.10
2018-01-07T12:38:17.853Z,4.00
2018-01-07T12:40:48.225Z,4.10
2018-01-07T12:43:19.887Z,4.30
2018-01-07T12:45:52.137Z,4.30
2018-01-07T12:48:22.858Z,4.30
2018-01-07T12:50:56.322Z,4.50
2018-01-07T12:53:30.441Z,4.60
2018-01-07T12:56:13.552Z,4.60
2018-01-07T12:58:46.726Z,4.50
2018-01-07T13:01:23.298Z,4.60
2018-01-07T13:03:54.212Z,4.50
2018-01-07T13:06:24.862Z,4.80
2018-01-07T13:08:57.047Z,4.30
2018-01-07T13:11:30.797Z,4.20
2018-01-07T13:14:04.567Z,4.30
2018-01-07T13:16:35.895Z,4.20
2018-01-07T13:19:06.787Z,4.20
2018-01-07T13:22:35.716Z,4.40
2018-01-07T13:25:10.301Z,4.40
2018-01-07T13:27:41.219Z,4.50
2018-01-07T13:30:12.453Z,4.60
2018-01-07T13:32:43.073Z,4.80
2018-01-07T13:35:13.800Z,5.10
2018-01-07T13:37:47.040Z,5.10
2018-01-07T13:40:18.288Z,4.90
2018-01-07T13:43:08.731Z,4.90
2018-01-07T13:45:41.143Z,4.80
2018-01-07T13:48:11.886Z,4.50
2018-01-07T13:50:43.212Z,4.70
2018-01-07T13:53:13.964Z,4.90
2018-01-07T13:55:44.861Z,5.10
2018-01-07T13:58:16.413Z,5.30
2018-01-07T14:00:46.750Z,5.30
2018-01-07T14:03:19.476Z,5.20
2018-01-07T14:05:50.443Z,5.20
2018-01-07T14:08:20.850Z,4.80
2018-01-07T14:10:51.350Z,4.40
2018-01-07T14:13:21.812Z,4.30
2018-01-07T14:15:53.607Z,4.10
2018-01-07T14:18:24.003Z,4.10
2018-01-07T14:20:55.672Z,4.40
2018-01-07T14:23:30.873Z,4.40
2018-01-07T14:27:34.904Z,4.50
2018-01-07T14:30:16.693Z,4.70
2018-01-07T14:32:48.914Z,4.60
2018-01-07T14:35:24.587Z,4.60
2018-01-07T14:37:55.899Z,4.40
2018-01-07T14:40:28.165Z,4.50
2018-01-07T14:43:02.639Z,4.60
2018-01-07T14:45:36.178Z,4.70
2018-01-07T14:48:09.380Z,4.40
2018-01-07T14:50:40.346Z,4.40
2018-01-07T14:53:11.341Z,4.50
2018-01-07T14:55:42.420Z,4.50
2018-01-07T14:58:13.009Z,4.50
2018-01-07T15:00:43.590Z,4.40
2018-01-07T15:03:16.155Z,4.20
2018-01-07T15:05:47.603Z,4.30
2018-01-07T15:08:18.594Z,4.20
2018-01-07T15:11:05.519Z,4.20
2018-01-07T15:13:37.427Z,4.20
2018-01-07T15:16:24.264Z,4.10
2018-01-07T15:18:58.299Z,4.10
2018-01-07T15:21:54.214Z,4.20
2018-01-07T15:24:25.050Z,4.30
2018-01-07T15:26:55.751Z,4.10
2018-01-07T15:29:28.288Z,4.00
2018-01-07T15:32:00.065Z,3.90
2018-01-07T15:34:31.159Z,3.90
2018-01-07T15:37:01.978Z,3.70
2018-01-07T15:39:33.908Z,3.60
2018-01-07T15:42:05.945Z,3.40
2018-01-07T15:44:38.407Z,3.60
2018-01-07T15:47:09.546Z,3.60
2018-01-07T15:49:41.620Z,3.50
2018-01-07T15:52:13.094Z,3.50
2018-01-07T15:54:45.566Z,3.30
2018-01-07T15:57:20.828Z,3.20
2018-01-07T15:59:51.923Z,3.20
2018-01-07T16:02:26.172Z,3.20
2018-01-07T16:04:57.492Z,3.30
2018-01-07T16:07:27.940Z,3.30
2018-01-07T16:09:58.348Z,3.10
2018-01-07T16:12:29.337Z,3.30
2018-01-07T16:15:01.407Z,3.40
2018-01-07T16:17:40.040Z,3.50
2018-01-07T16:20:12.218Z,3.40
2018-01-07T16:22:48.670Z,3.30
2018-01-07T16:25:19.640Z,3.40
2018-01-07T16:27:50.858Z,3.50
2018-01-07T16:30:21.535Z,3.30
2018-01-07T16:32:52.664Z,3.00
2018-01-07T16:35:42.386Z,3.10
2018-01-07T16:40:55.811Z,3.20
2018-01-07T16:43:27.723Z,3.20
2018-01-07T16:46:01.428Z,3.00
2018-01-07T16:48:33.415Z,3.00
2018-01-07T16:51:05.654Z,3.00
2018-01-07T16:53:40.462Z,2.90
2018-01-07T16:56:15.441Z,2.90
2018-01-07T16:58:49.528Z,2.90
2018-01-07T17:01:47.299Z,2.70
2018-01-07T17:08:02.325Z,3.10
2018-01-07T17:10:33.272Z,3.10
2018-01-07T17:13:06.395Z,3.00
2018-01-07T17:15:39.128Z,2.90
2018-01-07T17:18:10.443Z,2.90
2018-01-07T17:20:44.611Z,3.00
2018-01-07T17:23:41.767Z,3.00
2018-01-07T17:26:15.303Z,3.00
2018-01-07T17:28:48.336Z,3.00
2018-01-07T17:31:48.109Z,2.90
2018-01-07T17:34:19.779Z,2.90
2018-01-07T17:36:51.109Z,2.80
2018-01-07T17:39:25.960Z,2.80
2018-01-07T17:41:58.693Z,2.80
2018-01-07T17:44:31.098Z,2.70
2018-01-07T17:47:05.839Z,2.90
2018-01-07T17:49:38.147Z,2.90
2018-01-07T17:52:09.955Z,3.10
2018-01-07T17:54:43.407Z,3.10
2018-01-07T17:57:17.491Z,2.90
2018-01-07T17:59:48.346Z,2.90
2018-01-07T18:02:24.484Z,3.00
2018-01-07T18:04:57.227Z,3.00
2018-01-07T18:07:29.349Z,3.00
2018-01-07T18:10:00.572Z,2.80
2018-01-07T18:12:32.545Z,2.90
2018-01-07T18:15:03.979Z,2.90
2018-01-07T18:17:40.787Z,2.80
2018-01-07T18:20:11.980Z,2.80
2018-01-07T18:22:43.714Z,2.90
2018-01-07T18:26:46.076Z,2.90
2018-01-07T18:29:20.818Z,2.90
2018-01-07T18:31:52.591Z,2.60
2018-01-07T18:34:23.714Z,2.50
2018-01-07T18:36:56.587Z,2.80
2018-01-07T18:39:28.571Z,2.80
2018-01-07T18:42:05.603Z,2.70
2018-01-07T18:44:40.518Z,2.60
2018-01-07T18:47:11.864Z,2.60
2018-01-07T18:49:43.190Z,2.70
2018-01-07T18:52:15.641Z,2.80
2018-01-07T18:54:45.870Z,2.80
2018-01-07T18:57:16.627Z,2.80
2018-01-07T18:59:46.952Z,2.70
2018-01-07T19:02:18.018Z,2.50
2018-01-07T19:04:49.206Z,2.50
2018-01-07T19:07:20.431Z,2.40
2018-01-07T19:09:50.992Z,2.20
2018-01-07T19:12:23.791Z,2.50
2018-01-07T19:14:54.332Z,2.50
2018-01-07T19:17:26.400Z,2.60
2018-01-07T19:19:57.277Z,2.70
2018-01-07T19:22:27.959Z,2.50
2018-01-07T19:24:59.088Z,2.60
2018-01-07T19:27:30.187Z,2.60
2018-01-07T19:30:01.535Z,2.70
2018-01-07T19:32:32.558Z,2.60
2018-01-07T19:35:08.447Z,2.40
2018-01-07T19:37:38.696Z,2.40
2018-01-07T19:40:10.770Z,2.50
2018-01-07T19:42:41.898Z,2.30
2018-01-07T19:45:15.053Z,2.50
2018-01-07T19:47:48.863Z,2.40
2018-01-07T19:50:19.380Z,2.40
2018-01-07T19:52:49.801Z,2.50
2018-01-07T19:55:23.311Z,2.40
2018-01-07T19:57:56.243Z,2.40
2018-01-07T20:00:29.708Z,2.20
2018-01-07T20:03:02.407Z,2.20
2018-01-07T20:05:33.858Z,2.20
2018-01-07T20:08:04.220Z,2.20
2018-01-07T20:10:36.216Z,2.40
2018-01-07T20:13:06.808Z,2.30
2018-01-07T20:15:37.601Z,2.30
2018-01-07T20:18:08.773Z,2.20
2018-01-07T20:20:39.048Z,2.20
2018-01-07T20:23:10.760Z,2.30
2018-01-07T20:25:41.386Z,2.30
2018-01-07T20:28:12.828Z,2.20
2018-01-07T20:30:44.323Z,2.20
2018-01-07T20:33:15.623Z,2.30
2018-01-07T20:35:47.200Z,2.40
2018-01-07T20:38:17.832Z,2.30
2018-01-07T20:40:49.305Z,2.20
2018-01-07T20:43:20.381Z,2.20
2018-01-07T20:45:50.707Z,2.30
2018-01-07T20:48:21.327Z,2.40
2018-01-07T20:50:51.963Z,2.30
2018-01-07T20:53:22.897Z,2.00
2018-01-07T20:55:53.568Z,2.10
2018-01-07T20:58:23.951Z,2.20
2018-01-07T21:00:56.528Z,2.10
2018-01-07T21:03:27.416Z,2.10
2018-01-07T21:05:58.912Z,2.20
2018-01-07T21:09:53.830Z,2.10
2018-01-07T21:12:24.395Z,2.20
2018-01-07T21:14:55.084Z,2.30
2018-01-07T21:31:08.670Z,2.30
2018-01-07T21:33:45.839Z,2.30
2018-01-07T21:36:18.044Z,2.20
2018-01-07T21:38:48.653Z,2.20
2018-01-07T21:41:18.963Z,2.00
2018-01-07T21:43:49.610Z,2.10
2018-01-07T21:46:20.498Z,2.10
2018-01-07T21:48:50.870Z,2.10
2018-01-07T21:51:21.467Z,2.20
2018-01-07T21:54:00.342Z,2.10
2018-01-07T21:56:31.362Z,2.00
2018-01-07T21:59:02.640Z,2.00
2018-01-07T22:02:45.717Z,2.00
2018-01-07T22:05:16.800Z,2.00
2018-01-07T22:07:47.231Z,2.00
2018-01-07T22:10:19.266Z,2.10
2018-01-07T22:12:49.833Z,2.10
2018-01-07T22:15:20.523Z,2.00
2018-01-07T22:17:52.195Z,2.10
2018-01-07T22:20:22.794Z,2.10
2018-01-07T22:22:54.248Z,2.20
2018-01-07T22:25:24.636Z,2.20
2018-01-07T22:27:55.234Z,2.20
2018-01-07T22:30:32.364Z,2.30
2018-01-07T22:33:03.137Z,2.30
2018-01-07T22:35:33.473Z,2.30
2018-01-07T22:38:04.111Z,2.20
2018-01-07T22:40:34.787Z,2.30
2018-01-07T22:43:05.471Z,2.20
2018-01-07T22:45:36.027Z,1.80
2018-01-07T22:48:10.037Z,1.80
2018-01-07T22:50:40.414Z,1.80
2018-01-07T22:53:11.040Z,1.80
2018-01-07T22:55:41.393Z,1.80
2018-01-07T22:58:13.475Z,1.90
2018-01-07T23:00:44.167Z,1.90
2018-01-07T23:03:15.111Z,1.80
2018-01-07T23:05:46.214Z,1.80
2018-01-07T23:08:17.503Z,1.90
2018-01-07T23:10:48.236Z,1.90
2018-01-07T23:13:20.379Z,2.10
2018-01-07T23:15:51.104Z,2.10
2018-01-07T23:18:21.535Z,2.00
2018-01-07T23:20:52.630Z,2.10
2018-01-07T23:23:23.842Z,2.10
2018-01-07T23:25:54.045Z,2.10
2018-01-07T23:28:26.970Z,1.70
2018-01-07T23:30:58.505Z,1.60
2018-01-07T23:33:30.479Z,1.80
2018-01-07T23:36:05.556Z,1.70
2018-01-07T23:38:36.530Z,1.70
2018-01-07T23:41:07.801Z,1.80
2018-01-07T23:43:38.717Z,1.80
2018-01-07T23:46:09.479Z,1.80
2018-01-07T23:48:40.531Z,1.90
2018-01-07T23:51:11.099Z,2.00
2018-01-07T23:53:42.080Z,1.90
2018-01-07T23:56:13.531Z,1.90
2018-01-07T23:58:44.540Z,1.90
